sensor_id;sensor_type;location;lat;lon;timestamp;pressure;altitude;pressure_sealevel;temperature;humidity
7824;BME280;3957;48.61947800;9.05303100;2023-03-25T00:00:12;95524.22;;;6.37;100.00
7824;BME280;3957;48.61947800;9.05303100;2023-03-25T00:01:16;95525.78;;;6.31;100.00
7824;BME280;3957;48.61947800;9.05303100;2023-03-25T00:02:17;95528.75;;;6.21;100.00
7824;BME280;3957;48.61947800;9.05303100;2023-03-25T00:03:19;95531.25;;;6.23;100.00
7824;BME280;3957;48.61947800;9.05303100;2023-03-25T00:04:21;95512.53;;;6.09;100.00
7824;BME280;3957;48.61947800;9.05303100;2023-03-25T00:05:26;95493.47;;;6.06;100.00
7824;BME280;3957;48.61947800;9.05303100;2023-03-25T00:06:27;95502.03;;;6.01;100.00
7824;BME280;3957;48.61947800;9.05303100;2023-03-25T00:07:27;95487.38;;;5.90;100.00
7824;BME280;3957;48.61947800;9.05303100;2023-03-25T00:08:27;95490.84;;;5.91;100.00
7824;BME280;3957;48.61947800;9.05303100;2023-03-25T00:09:28;95490.81;;;5.84;100.00
7824;BME280;3957;48.61947800;9.05303100;2023-03-25T00:10:28;95493.94;;;5.94;100.00
7824;BME280;3957;48.61947800;9.05303100;2023-03-25T00:11:28;95499.25;;;5.94;100.00
7824;BME280;3957;48.61947800;9.05303100;2023-03-25T00:12:29;95493.47;;;5.84;100.00
7824;BME280;3957;48.61947800;9.05303100;2023-03-25T00:13:30;95487.19;;;5.92;100.00
7824;BME280;3957;48.61947800;9.05303100;2023-03-25T00:14:30;95492.94;;;5.95;100.00
7824;BME280;3957;48.61947800;9.05303100;2023-03-25T00:15:32;95498.50;;;5.79;100.00
7824;BME280;3957;48.61947800;9.05303100;2023-03-25T00:16:35;95497.50;;;5.80;100.00
7824;BME280;3957;48.61947800;9.05303100;2023-03-25T00:17:36;95497.03;;;5.76;100.00
7824;BME280;3957;48.61947800;9.05303100;2023-03-25T00:18:37;95486.88;;;5.80;100.00
7824;BME280;3957;48.61947800;9.05303100;2023-03-25T00:19:39;95483.13;;;5.74;100.00
7824;BME280;3957;48.61947800;9.05303100;2023-03-25T00:20:40;95495.00;;;5.78;100.00
7824;BME280;3957;48.61947800;9.05303100;2023-03-25T00:21:41;95486.03;;;5.79;100.00
7824;BME280;3957;48.61947800;9.05303100;2023-03-25T00:22:43;95490.28;;;5.74;100.00
7824;BME280;3957;48.61947800;9.05303100;2023-03-25T00:23:44;95493.94;;;5.73;100.00
7824;BME280;3957;48.61947800;9.05303100;2023-03-25T00:24:44;95489.19;;;5.68;100.00
7824;BME280;3957;48.61947800;9.05303100;2023-03-25T00:25:45;95489.81;;;5.70;100.00
7824;BME280;3957;48.61947800;9.05303100;2023-03-25T00:26:46;95484.47;;;5.64;100.00
7824;BME280;3957;48.61947800;9.05303100;2023-03-25T00:27:47;95490.13;;;5.60;100.00
7824;BME280;3957;48.61947800;9.05303100;2023-03-25T00:28:50;95484.56;;;5.55;100.00
7824;BME280;3957;48.61947800;9.05303100;2023-03-25T00:29:50;95485.56;;;5.54;100.00
7824;BME280;3957;48.61947800;9.05303100;2023-03-25T00:30:51;95481.84;;;5.49;100.00
7824;BME280;3957;48.61947800;9.05303100;2023-03-25T00:31:52;95478.34;;;5.48;100.00
7824;BME280;3957;48.61947800;9.05303100;2023-03-25T00:32:53;95479.38;;;5.47;100.00
7824;BME280;3957;48.61947800;9.05303100;2023-03-25T00:33:53;95475.44;;;5.43;100.00
7824;BME280;3957;48.61947800;9.05303100;2023-03-25T00:34:54;95486.25;;;5.41;100.00
7824;BME280;3957;48.61947800;9.05303100;2023-03-25T00:35:55;95487.69;;;5.44;100.00
7824;BME280;3957;48.61947800;9.05303100;2023-03-25T00:36:58;95487.16;;;5.49;100.00
7824;BME280;3957;48.61947800;9.05303100;2023-03-25T00:37:58;95491.72;;;5.40;100.00
7824;BME280;3957;48.61947800;9.05303100;2023-03-25T00:38:59;95496.41;;;5.38;100.00
7824;BME280;3957;48.61947800;9.05303100;2023-03-25T00:39:59;95495.66;;;5.44;100.00
7824;BME280;3957;48.61947800;9.05303100;2023-03-25T00:41:14;95492.84;;;5.45;100.00
7824;BME280;3957;48.61947800;9.05303100;2023-03-25T00:42:17;95492.84;;;5.45;100.00
7824;BME280;3957;48.61947800;9.05303100;2023-03-25T00:43:25;95493.47;;;5.48;100.00
7824;BME280;3957;48.61947800;9.05303100;2023-03-25T00:44:25;95495.22;;;5.40;100.00
7824;BME280;3957;48.61947800;9.05303100;2023-03-25T00:45:26;95492.56;;;5.40;100.00
7824;BME280;3957;48.61947800;9.05303100;2023-03-25T00:46:31;95477.84;;;5.38;100.00
7824;BME280;3957;48.61947800;9.05303100;2023-03-25T00:47:32;95475.56;;;5.35;100.00
7824;BME280;3957;48.61947800;9.05303100;2023-03-25T00:48:32;95479.22;;;5.34;100.00
7824;BME280;3957;48.61947800;9.05303100;2023-03-25T00:49:33;95479.41;;;5.32;100.00
7824;BME280;3957;48.61947800;9.05303100;2023-03-25T00:50:33;95468.91;;;5.24;100.00
7824;BME280;3957;48.61947800;9.05303100;2023-03-25T00:51:34;95470.75;;;5.23;100.00
7824;BME280;3957;48.61947800;9.05303100;2023-03-25T00:52:34;95462.13;;;5.21;100.00
7824;BME280;3957;48.61947800;9.05303100;2023-03-25T00:53:36;95470.28;;;5.20;100.00
7824;BME280;3957;48.61947800;9.05303100;2023-03-25T00:54:36;95464.97;;;5.20;100.00
7824;BME280;3957;48.61947800;9.05303100;2023-03-25T00:55:37;95462.94;;;5.22;100.00
7824;BME280;3957;48.61947800;9.05303100;2023-03-25T00:56:37;95455.75;;;5.16;100.00
7824;BME280;3957;48.61947800;9.05303100;2023-03-25T00:57:38;95465.97;;;5.04;100.00
7824;BME280;3957;48.61947800;9.05303100;2023-03-25T00:58:39;95456.22;;;5.04;100.00
7824;BME280;3957;48.61947800;9.05303100;2023-03-25T00:59:39;95456.13;;;4.98;100.00
7824;BME280;3957;48.61947800;9.05303100;2023-03-25T01:00:40;95451.41;;;4.93;100.00
7824;BME280;3957;48.61947800;9.05303100;2023-03-25T01:01:40;95451.31;;;4.86;100.00
7824;BME280;3957;48.61947800;9.05303100;2023-03-25T01:02:43;95448.75;;;4.93;100.00
7824;BME280;3957;48.61947800;9.05303100;2023-03-25T01:03:44;95455.75;;;4.86;100.00
7824;BME280;3957;48.61947800;9.05303100;2023-03-25T01:04:45;95455.03;;;4.77;100.00
7824;BME280;3957;48.61947800;9.05303100;2023-03-25T01:05:45;95458.88;;;4.74;100.00
7824;BME280;3957;48.61947800;9.05303100;2023-03-25T01:06:46;95452.88;;;4.81;100.00
7824;BME280;3957;48.61947800;9.05303100;2023-03-25T01:07:50;95456.13;;;4.83;100.00
7824;BME280;3957;48.61947800;9.05303100;2023-03-25T01:08:51;95454.28;;;4.83;100.00
7824;BME280;3957;48.61947800;9.05303100;2023-03-25T01:09:52;95456.59;;;4.86;100.00
7824;BME280;3957;48.61947800;9.05303100;2023-03-25T01:10:53;95460.06;;;4.87;100.00
7824;BME280;3957;48.61947800;9.05303100;2023-03-25T01:11:53;95462.00;;;4.93;100.00
7824;BME280;3957;48.61947800;9.05303100;2023-03-25T01:12:54;95453.28;;;4.99;100.00
7824;BME280;3957;48.61947800;9.05303100;2023-03-25T01:13:57;95460.25;;;5.00;100.00
7824;BME280;3957;48.61947800;9.05303100;2023-03-25T01:14:59;95465.56;;;4.85;100.00
7824;BME280;3957;48.61947800;9.05303100;2023-03-25T01:15:59;95464.66;;;4.93;100.00
7824;BME280;3957;48.61947800;9.05303100;2023-03-25T01:17:00;95467.47;;;4.91;100.00
7824;BME280;3957;48.61947800;9.05303100;2023-03-25T01:18:03;95459.69;;;5.05;100.00
7824;BME280;3957;48.61947800;9.05303100;2023-03-25T01:19:04;95470.75;;;5.08;100.00
7824;BME280;3957;48.61947800;9.05303100;2023-03-25T01:20:05;95465.63;;;5.07;100.00
7824;BME280;3957;48.61947800;9.05303100;2023-03-25T01:21:06;95471.09;;;5.05;100.00
7824;BME280;3957;48.61947800;9.05303100;2023-03-25T01:22:07;95467.91;;;5.10;100.00
7824;BME280;3957;48.61947800;9.05303100;2023-03-25T01:23:07;95466.25;;;5.09;100.00
7824;BME280;3957;48.61947800;9.05303100;2023-03-25T01:24:11;95466.91;;;5.11;100.00
7824;BME280;3957;48.61947800;9.05303100;2023-03-25T01:25:12;95469.72;;;5.09;100.00
7824;BME280;3957;48.61947800;9.05303100;2023-03-25T01:26:12;95467.06;;;5.09;100.00
7824;BME280;3957;48.61947800;9.05303100;2023-03-25T01:27:13;95470.19;;;5.13;100.00
7824;BME280;3957;48.61947800;9.05303100;2023-03-25T01:28:13;95452.00;;;5.10;100.00
7824;BME280;3957;48.61947800;9.05303100;2023-03-25T01:29:17;95441.94;;;5.05;100.00
7824;BME280;3957;48.61947800;9.05303100;2023-03-25T01:30:18;95442.31;;;5.02;100.00
7824;BME280;3957;48.61947800;9.05303100;2023-03-25T01:31:18;95445.25;;;5.07;100.00
7824;BME280;3957;48.61947800;9.05303100;2023-03-25T01:32:19;95446.53;;;4.97;100.00
7824;BME280;3957;48.61947800;9.05303100;2023-03-25T01:33:20;95445.63;;;5.04;100.00
7824;BME280;3957;48.61947800;9.05303100;2023-03-25T01:34:20;95445.44;;;5.06;100.00
7824;BME280;3957;48.61947800;9.05303100;2023-03-25T01:35:21;95446.44;;;5.05;100.00
7824;BME280;3957;48.61947800;9.05303100;2023-03-25T01:36:22;95444.44;;;5.07;100.00
7824;BME280;3957;48.61947800;9.05303100;2023-03-25T01:37:24;95442.97;;;5.04;100.00
7824;BME280;3957;48.61947800;9.05303100;2023-03-25T01:38:25;95435.34;;;5.01;100.00
7824;BME280;3957;48.61947800;9.05303100;2023-03-25T01:39:26;95435.81;;;5.05;100.00
7824;BME280;3957;48.61947800;9.05303100;2023-03-25T01:40:27;95436.72;;;5.12;100.00
7824;BME280;3957;48.61947800;9.05303100;2023-03-25T01:41:28;95433.34;;;5.18;100.00
7824;BME280;3957;48.61947800;9.05303100;2023-03-25T01:42:29;95442.75;;;5.21;100.00
7824;BME280;3957;48.61947800;9.05303100;2023-03-25T01:43:31;95444.47;;;5.14;100.00
7824;BME280;3957;48.61947800;9.05303100;2023-03-25T01:45:32;95441.59;;;5.08;100.00
7824;BME280;3957;48.61947800;9.05303100;2023-03-25T01:46:39;95443.16;;;5.03;100.00
7824;BME280;3957;48.61947800;9.05303100;2023-03-25T01:47:44;95445.94;;;5.16;100.00
7824;BME280;3957;48.61947800;9.05303100;2023-03-25T01:48:45;95439.06;;;5.22;100.00
7824;BME280;3957;48.61947800;9.05303100;2023-03-25T01:49:49;95429.41;;;5.14;100.00
7824;BME280;3957;48.61947800;9.05303100;2023-03-25T01:50:59;95435.72;;;5.13;100.00
7824;BME280;3957;48.61947800;9.05303100;2023-03-25T01:52:04;95435.34;;;5.01;100.00
7824;BME280;3957;48.61947800;9.05303100;2023-03-25T01:53:07;95437.28;;;5.07;100.00
7824;BME280;3957;48.61947800;9.05303100;2023-03-25T01:54:09;95431.22;;;5.14;100.00
7824;BME280;3957;48.61947800;9.05303100;2023-03-25T01:55:12;95417.81;;;5.15;100.00
7824;BME280;3957;48.61947800;9.05303100;2023-03-25T01:56:16;95421.66;;;5.13;100.00
7824;BME280;3957;48.61947800;9.05303100;2023-03-25T01:57:20;95422.00;;;5.09;100.00
7824;BME280;3957;48.61947800;9.05303100;2023-03-25T01:58:22;95419.41;;;5.16;100.00
7824;BME280;3957;48.61947800;9.05303100;2023-03-25T01:59:26;95416.44;;;5.04;100.00
7824;BME280;3957;48.61947800;9.05303100;2023-03-25T02:00:27;95417.25;;;5.05;100.00
7824;BME280;3957;48.61947800;9.05303100;2023-03-25T02:01:28;95415.78;;;5.02;100.00
7824;BME280;3957;48.61947800;9.05303100;2023-03-25T02:02:30;95403.44;;;5.09;100.00
7824;BME280;3957;48.61947800;9.05303100;2023-03-25T02:03:35;95408.31;;;5.06;100.00
7824;BME280;3957;48.61947800;9.05303100;2023-03-25T02:04:52;95400.34;;;5.06;100.00
7824;BME280;3957;48.61947800;9.05303100;2023-03-25T02:06:05;95401.25;;;4.98;100.00
7824;BME280;3957;48.61947800;9.05303100;2023-03-25T02:07:06;95396.53;;;4.93;100.00
7824;BME280;3957;48.61947800;9.05303100;2023-03-25T02:08:08;95401.84;;;4.93;100.00
7824;BME280;3957;48.61947800;9.05303100;2023-03-25T02:09:11;95395.72;;;4.93;100.00
7824;BME280;3957;48.61947800;9.05303100;2023-03-25T02:10:13;95404.22;;;4.88;100.00
7824;BME280;3957;48.61947800;9.05303100;2023-03-25T02:11:13;95402.13;;;4.84;100.00
7824;BME280;3957;48.61947800;9.05303100;2023-03-25T02:12:14;95412.34;;;4.87;100.00
7824;BME280;3957;48.61947800;9.05303100;2023-03-25T02:13:14;95401.38;;;4.90;100.00
7824;BME280;3957;48.61947800;9.05303100;2023-03-25T02:14:19;95412.34;;;4.87;100.00
7824;BME280;3957;48.61947800;9.05303100;2023-03-25T02:15:20;95415.66;;;4.74;100.00
7824;BME280;3957;48.61947800;9.05303100;2023-03-25T02:16:25;95409.22;;;4.83;100.00
7824;BME280;3957;48.61947800;9.05303100;2023-03-25T02:21:33;95425.69;;;4.79;100.00
7824;BME280;3957;48.61947800;9.05303100;2023-03-25T02:28:38;95430.72;;;4.88;100.00
7824;BME280;3957;48.61947800;9.05303100;2023-03-25T02:30:07;95437.00;;;5.02;100.00
7824;BME280;3957;48.61947800;9.05303100;2023-03-25T02:31:42;95439.38;;;5.12;100.00
7824;BME280;3957;48.61947800;9.05303100;2023-03-25T02:38:52;95464.06;;;5.13;100.00
7824;BME280;3957;48.61947800;9.05303100;2023-03-25T02:40:02;95488.84;;;5.05;100.00
7824;BME280;3957;48.61947800;9.05303100;2023-03-25T02:41:21;95472.13;;;5.04;100.00
7824;BME280;3957;48.61947800;9.05303100;2023-03-25T02:44:00;95481.47;;;4.85;100.00
7824;BME280;3957;48.61947800;9.05303100;2023-03-25T02:45:11;95494.06;;;4.83;100.00
7824;BME280;3957;48.61947800;9.05303100;2023-03-25T02:46:16;95497.25;;;4.79;100.00
7824;BME280;3957;48.61947800;9.05303100;2023-03-25T02:47:21;95488.41;;;4.71;100.00
7824;BME280;3957;48.61947800;9.05303100;2023-03-25T02:48:31;95493.03;;;4.69;100.00
7824;BME280;3957;48.61947800;9.05303100;2023-03-25T02:49:36;95471.59;;;4.64;100.00
7824;BME280;3957;48.61947800;9.05303100;2023-03-25T02:50:50;95494.69;;;4.55;100.00
7824;BME280;3957;48.61947800;9.05303100;2023-03-25T02:51:57;95498.78;;;4.43;100.00
7824;BME280;3957;48.61947800;9.05303100;2023-03-25T02:53:03;95494.28;;;4.29;100.00
7824;BME280;3957;48.61947800;9.05303100;2023-03-25T02:54:10;95496.34;;;4.18;100.00
7824;BME280;3957;48.61947800;9.05303100;2023-03-25T02:55:14;95473.94;;;4.06;100.00
7824;BME280;3957;48.61947800;9.05303100;2023-03-25T02:56:19;95477.84;;;3.95;100.00
7824;BME280;3957;48.61947800;9.05303100;2023-03-25T02:57:24;95450.59;;;3.86;100.00
7824;BME280;3957;48.61947800;9.05303100;2023-03-25T02:58:28;95430.16;;;3.80;100.00
7824;BME280;3957;48.61947800;9.05303100;2023-03-25T02:59:30;95411.69;;;3.72;100.00
7824;BME280;3957;48.61947800;9.05303100;2023-03-25T03:00:32;95403.63;;;3.65;100.00
7824;BME280;3957;48.61947800;9.05303100;2023-03-25T03:01:34;95406.53;;;3.55;100.00
7824;BME280;3957;48.61947800;9.05303100;2023-03-25T03:02:35;95410.47;;;3.60;100.00
7824;BME280;3957;48.61947800;9.05303100;2023-03-25T03:03:36;95415.94;;;3.58;100.00
7824;BME280;3957;48.61947800;9.05303100;2023-03-25T03:04:54;95415.09;;;3.57;100.00
7824;BME280;3957;48.61947800;9.05303100;2023-03-25T03:05:58;95410.66;;;3.58;100.00
7824;BME280;3957;48.61947800;9.05303100;2023-03-25T03:07:00;95417.78;;;3.49;100.00
7824;BME280;3957;48.61947800;9.05303100;2023-03-25T03:08:09;95418.28;;;3.53;100.00
7824;BME280;3957;48.61947800;9.05303100;2023-03-25T03:09:35;95429.53;;;3.55;100.00
7824;BME280;3957;48.61947800;9.05303100;2023-03-25T03:14:16;95429.66;;;3.53;100.00
7824;BME280;3957;48.61947800;9.05303100;2023-03-25T03:17:02;95435.44;;;3.57;100.00
7824;BME280;3957;48.61947800;9.05303100;2023-03-25T03:18:25;95445.84;;;3.58;100.00
7824;BME280;3957;48.61947800;9.05303100;2023-03-25T03:20:49;95459.63;;;3.54;100.00
7824;BME280;3957;48.61947800;9.05303100;2023-03-25T03:23:36;95463.97;;;3.47;100.00
7824;BME280;3957;48.61947800;9.05303100;2023-03-25T03:24:51;95470.47;;;3.36;100.00
7824;BME280;3957;48.61947800;9.05303100;2023-03-25T03:26:08;95463.31;;;3.45;100.00
7824;BME280;3957;48.61947800;9.05303100;2023-03-25T03:27:37;95458.69;;;3.47;100.00
7824;BME280;3957;48.61947800;9.05303100;2023-03-25T03:29:47;95449.91;;;3.46;100.00
7824;BME280;3957;48.61947800;9.05303100;2023-03-25T03:31:36;95452.09;;;3.43;100.00
7824;BME280;3957;48.61947800;9.05303100;2023-03-25T03:32:43;95446.63;;;3.44;100.00
7824;BME280;3957;48.61947800;9.05303100;2023-03-25T03:34:00;95445.59;;;3.45;100.00
7824;BME280;3957;48.61947800;9.05303100;2023-03-25T03:35:21;95444.91;;;3.51;100.00
7824;BME280;3957;48.61947800;9.05303100;2023-03-25T03:36:28;95452.38;;;3.48;100.00
7824;BME280;3957;48.61947800;9.05303100;2023-03-25T03:37:33;95449.50;;;3.34;100.00
7824;BME280;3957;48.61947800;9.05303100;2023-03-25T03:38:40;95447.59;;;3.43;100.00
7824;BME280;3957;48.61947800;9.05303100;2023-03-25T03:39:44;95444.44;;;3.48;100.00
7824;BME280;3957;48.61947800;9.05303100;2023-03-25T03:40:51;95452.38;;;3.48;100.00
7824;BME280;3957;48.61947800;9.05303100;2023-03-25T03:42:00;95448.25;;;3.45;100.00
7824;BME280;3957;48.61947800;9.05303100;2023-03-25T03:43:18;95451.38;;;3.49;100.00
7824;BME280;3957;48.61947800;9.05303100;2023-03-25T03:44:30;95458.31;;;3.50;100.00
7824;BME280;3957;48.61947800;9.05303100;2023-03-25T03:45:39;95460.78;;;3.51;100.00
7824;BME280;3957;48.61947800;9.05303100;2023-03-25T03:46:49;95460.66;;;3.45;100.00
7824;BME280;3957;48.61947800;9.05303100;2023-03-25T03:47:54;95466.06;;;3.51;100.00
7824;BME280;3957;48.61947800;9.05303100;2023-03-25T03:48:57;95458.69;;;3.47;100.00
7824;BME280;3957;48.61947800;9.05303100;2023-03-25T03:50:14;95458.53;;;3.40;100.00
7824;BME280;3957;48.61947800;9.05303100;2023-03-25T03:51:24;95459.97;;;3.51;100.00
7824;BME280;3957;48.61947800;9.05303100;2023-03-25T03:52:38;95465.34;;;3.57;100.00
7824;BME280;3957;48.61947800;9.05303100;2023-03-25T03:53:45;95463.91;;;3.55;100.00
7824;BME280;3957;48.61947800;9.05303100;2023-03-25T03:54:50;95462.22;;;3.62;100.00
7824;BME280;3957;48.61947800;9.05303100;2023-03-25T03:55:57;95458.72;;;3.62;100.00
7824;BME280;3957;48.61947800;9.05303100;2023-03-25T03:57:20;95465.34;;;3.57;100.00
7824;BME280;3957;48.61947800;9.05303100;2023-03-25T03:58:28;95464.66;;;3.64;100.00
7824;BME280;3957;48.61947800;9.05303100;2023-03-25T04:00:39;95460.38;;;3.63;100.00
7824;BME280;3957;48.61947800;9.05303100;2023-03-25T04:01:46;95470.66;;;3.57;100.00
7824;BME280;3957;48.61947800;9.05303100;2023-03-25T04:03:00;95471.25;;;3.68;100.00
7824;BME280;3957;48.61947800;9.05303100;2023-03-25T04:04:06;95473.41;;;3.64;100.00
7824;BME280;3957;48.61947800;9.05303100;2023-03-25T04:05:15;95474.91;;;3.67;100.00
7824;BME280;3957;48.61947800;9.05303100;2023-03-25T04:06:43;95469.44;;;3.68;100.00
7824;BME280;3957;48.61947800;9.05303100;2023-03-25T04:07:56;95481.59;;;3.78;100.00
7824;BME280;3957;48.61947800;9.05303100;2023-03-25T04:09:01;95475.25;;;3.64;100.00
7824;BME280;3957;48.61947800;9.05303100;2023-03-25T04:10:08;95477.72;;;3.65;100.00
7824;BME280;3957;48.61947800;9.05303100;2023-03-25T04:11:19;95488.81;;;3.84;100.00
7824;BME280;3957;48.61947800;9.05303100;2023-03-25T04:12:26;95479.91;;;3.85;100.00
7824;BME280;3957;48.61947800;9.05303100;2023-03-25T04:13:31;95478.78;;;3.79;100.00
7824;BME280;3957;48.61947800;9.05303100;2023-03-25T04:14:32;95488.19;;;3.82;100.00
7824;BME280;3957;48.61947800;9.05303100;2023-03-25T04:15:33;95483.09;;;3.80;100.00
7824;BME280;3957;48.61947800;9.05303100;2023-03-25T04:16:33;95483.94;;;3.72;100.00
7824;BME280;3957;48.61947800;9.05303100;2023-03-25T04:17:36;95470.66;;;3.81;100.00
7824;BME280;3957;48.61947800;9.05303100;2023-03-25T04:18:36;95469.72;;;3.97;100.00
7824;BME280;3957;48.61947800;9.05303100;2023-03-25T04:19:38;95472.25;;;3.90;100.00
7824;BME280;3957;48.61947800;9.05303100;2023-03-25T04:20:39;95476.31;;;4.01;100.00
7824;BME280;3957;48.61947800;9.05303100;2023-03-25T04:21:44;95469.44;;;3.91;100.00
7824;BME280;3957;48.61947800;9.05303100;2023-03-25T04:22:46;95468.88;;;3.96;100.00
7824;BME280;3957;48.61947800;9.05303100;2023-03-25T04:23:48;95476.00;;;3.96;100.00
7824;BME280;3957;48.61947800;9.05303100;2023-03-25T04:24:49;95470.59;;;3.89;100.00
7824;BME280;3957;48.61947800;9.05303100;2023-03-25T04:25:51;95472.25;;;3.90;100.00
7824;BME280;3957;48.61947800;9.05303100;2023-03-25T04:26:54;95483.53;;;3.84;100.00
7824;BME280;3957;48.61947800;9.05303100;2023-03-25T04:27:57;95472.06;;;3.91;100.00
7824;BME280;3957;48.61947800;9.05303100;2023-03-25T04:28:59;95471.59;;;3.88;100.00
7824;BME280;3957;48.61947800;9.05303100;2023-03-25T04:30:00;95481.00;;;3.90;100.00
7824;BME280;3957;48.61947800;9.05303100;2023-03-25T04:31:02;95484.69;;;3.89;100.00
7824;BME280;3957;48.61947800;9.05303100;2023-03-25T04:32:07;95480.31;;;3.97;100.00
7824;BME280;3957;48.61947800;9.05303100;2023-03-25T04:33:08;95477.00;;;3.95;100.00
7824;BME280;3957;48.61947800;9.05303100;2023-03-25T04:34:09;95488.78;;;3.92;100.00
7824;BME280;3957;48.61947800;9.05303100;2023-03-25T04:35:09;95483.94;;;3.96;100.00
7824;BME280;3957;48.61947800;9.05303100;2023-03-25T04:36:11;95487.91;;;4.00;100.00
7824;BME280;3957;48.61947800;9.05303100;2023-03-25T04:37:13;95476.31;;;4.01;100.00
7824;BME280;3957;48.61947800;9.05303100;2023-03-25T04:38:13;95480.81;;;3.92;100.00
7824;BME280;3957;48.61947800;9.05303100;2023-03-25T04:39:17;95480.44;;;3.80;100.00
7824;BME280;3957;48.61947800;9.05303100;2023-03-25T04:40:21;95483.59;;;3.75;100.00
7824;BME280;3957;48.61947800;9.05303100;2023-03-25T04:41:24;95473.06;;;3.90;100.00
7824;BME280;3957;48.61947800;9.05303100;2023-03-25T04:42:25;95480.13;;;3.98;100.00
7824;BME280;3957;48.61947800;9.05303100;2023-03-25T04:43:32;95477.13;;;4.01;100.00
7824;BME280;3957;48.61947800;9.05303100;2023-03-25T04:44:32;95478.28;;;3.99;100.00
7824;BME280;3957;48.61947800;9.05303100;2023-03-25T04:45:38;95482.31;;;3.95;100.00
7824;BME280;3957;48.61947800;9.05303100;2023-03-25T04:46:38;95477.31;;;4.00;100.00
7824;BME280;3957;48.61947800;9.05303100;2023-03-25T04:47:39;95481.44;;;3.79;100.00
7824;BME280;3957;48.61947800;9.05303100;2023-03-25T04:48:44;95487.84;;;3.85;100.00
7824;BME280;3957;48.61947800;9.05303100;2023-03-25T04:49:45;95481.00;;;3.90;100.00
7824;BME280;3957;48.61947800;9.05303100;2023-03-25T04:50:45;95486.31;;;3.90;100.00
7824;BME280;3957;48.61947800;9.05303100;2023-03-25T04:51:47;95496.19;;;3.97;100.00
7824;BME280;3957;48.61947800;9.05303100;2023-03-25T04:52:51;95494.91;;;3.92;100.00
7824;BME280;3957;48.61947800;9.05303100;2023-03-25T04:53:52;95496.38;;;3.95;100.00
7824;BME280;3957;48.61947800;9.05303100;2023-03-25T04:54:52;95504.88;;;3.82;100.00
7824;BME280;3957;48.61947800;9.05303100;2023-03-25T04:55:53;95503.03;;;3.91;100.00
7824;BME280;3957;48.61947800;9.05303100;2023-03-25T04:56:54;95503.53;;;3.86;100.00
7824;BME280;3957;48.61947800;9.05303100;2023-03-25T04:57:55;95496.38;;;3.72;100.00
7824;BME280;3957;48.61947800;9.05303100;2023-03-25T04:58:56;95495.13;;;3.83;100.00
7824;BME280;3957;48.61947800;9.05303100;2023-03-25T04:59:56;95495.66;;;3.78;100.00
7824;BME280;3957;48.61947800;9.05303100;2023-03-25T05:00:57;95495.53;;;3.71;100.00
7824;BME280;3957;48.61947800;9.05303100;2023-03-25T05:02:05;95491.19;;;3.55;100.00
7824;BME280;3957;48.61947800;9.05303100;2023-03-25T05:03:08;95492.72;;;3.73;100.00
7824;BME280;3957;48.61947800;9.05303100;2023-03-25T05:04:10;95487.19;;;3.60;100.00
7824;BME280;3957;48.61947800;9.05303100;2023-03-25T05:05:20;95485.78;;;3.72;100.00
7824;BME280;3957;48.61947800;9.05303100;2023-03-25T05:06:20;95494.03;;;3.77;100.00
7824;BME280;3957;48.61947800;9.05303100;2023-03-25T05:07:21;95497.44;;;3.86;100.00
7824;BME280;3957;48.61947800;9.05303100;2023-03-25T05:08:21;95494.25;;;3.90;100.00
7824;BME280;3957;48.61947800;9.05303100;2023-03-25T05:09:22;95491.78;;;3.89;100.00
7824;BME280;3957;48.61947800;9.05303100;2023-03-25T05:10:25;95495.78;;;3.85;100.00
7824;BME280;3957;48.61947800;9.05303100;2023-03-25T05:11:25;95499.25;;;3.85;100.00
7824;BME280;3957;48.61947800;9.05303100;2023-03-25T05:12:25;95496.19;;;3.73;100.00
7824;BME280;3957;48.61947800;9.05303100;2023-03-25T05:13:26;95500.31;;;3.76;100.00
7824;BME280;3957;48.61947800;9.05303100;2023-03-25T05:14:26;95504.88;;;3.82;100.00
7824;BME280;3957;48.61947800;9.05303100;2023-03-25T05:15:27;95511.03;;;3.83;100.00
7824;BME280;3957;48.61947800;9.05303100;2023-03-25T05:16:29;95513.72;;;3.74;100.00
7824;BME280;3957;48.61947800;9.05303100;2023-03-25T05:17:30;95509.00;;;3.85;100.00
7824;BME280;3957;48.61947800;9.05303100;2023-03-25T05:18:31;95511.19;;;3.81;100.00
7824;BME280;3957;48.61947800;9.05303100;2023-03-25T05:19:31;95517.19;;;3.98;100.00
7824;BME280;3957;48.61947800;9.05303100;2023-03-25T05:20:36;95509.78;;;3.94;100.00
7824;BME280;3957;48.61947800;9.05303100;2023-03-25T05:21:39;95514.91;;;3.95;100.00
7824;BME280;3957;48.61947800;9.05303100;2023-03-25T05:22:40;95514.44;;;3.91;100.00
7824;BME280;3957;48.61947800;9.05303100;2023-03-25T05:23:41;95516.88;;;3.93;100.00
7824;BME280;3957;48.61947800;9.05303100;2023-03-25T05:24:42;95520.03;;;3.97;100.00
7824;BME280;3957;48.61947800;9.05303100;2023-03-25T05:25:45;95520.16;;;4.03;100.00
7824;BME280;3957;48.61947800;9.05303100;2023-03-25T05:26:46;95525.53;;;4.10;100.00
7824;BME280;3957;48.61947800;9.05303100;2023-03-25T05:27:47;95527.47;;;4.16;100.00
7824;BME280;3957;48.61947800;9.05303100;2023-03-25T05:28:47;95522.59;;;4.05;100.00
7824;BME280;3957;48.61947800;9.05303100;2023-03-25T05:29:50;95521.59;;;4.06;100.00
7824;BME280;3957;48.61947800;9.05303100;2023-03-25T05:30:51;95518.72;;;4.16;100.00
7824;BME280;3957;48.61947800;9.05303100;2023-03-25T05:31:51;95514.59;;;4.13;100.00
7824;BME280;3957;48.61947800;9.05303100;2023-03-25T05:32:51;95514.41;;;4.15;100.00
7824;BME280;3957;48.61947800;9.05303100;2023-03-25T05:33:52;95514.25;;;4.16;100.00
7824;BME280;3957;48.61947800;9.05303100;2023-03-25T05:34:56;95518.53;;;4.17;100.00